Time;durP1;ratioP1;P1;durP2;ratioP2;P2;SDS_P1;SDS_P2;PMS_P1;PMS_P2;Temp;Humidity;BMP_temperature;BMP_pressure;BME280_temperature;BME280_humidity;BME280_pressure;Samples;Min_cycle;Max_cycle;Signal;HPM_P1;HPM_P2
2021/09/08 00:01:10;;;;;;;20.75;13.80;;;;;;;;;;5032756;28;20025;-60
2021/09/08 00:03:36;;;;;;;20.85;13.38;;;;;;;;;;5033144;28;20025;-60
2021/09/08 00:06:03;;;;;;;19.75;15.15;;;;;;;;;;5032247;28;20026;-60
2021/09/08 00:08:29;;;;;;;18.67;13.55;;;;;;;;;;5034255;28;20107;-60
2021/09/08 00:10:55;;;;;;;17.65;13.60;;;;;;;;;;5032540;28;20489;-60
2021/09/08 00:13:21;;;;;;;18.77;14.65;;;;;;;;;;5033087;28;20063;-60
2021/09/08 00:15:47;;;;;;;19.98;14.80;;;;;;;;;;5033476;28;20032;-60
2021/09/08 00:18:13;;;;;;;21.88;13.57;;;;;;;;;;5032458;28;20030;-60
2021/09/08 00:20:39;;;;;;;17.77;13.15;;;;;;;;;;5034384;28;20421;-61
2021/09/08 00:23:05;;;;;;;18.27;13.10;;;;;;;;;;5034141;28;20033;-61
2021/09/08 00:25:31;;;;;;;16.73;12.77;;;;;;;;;;5034195;28;20037;-60
2021/09/08 00:27:57;;;;;;;18.92;13.57;;;;;;;;;;5034130;28;20116;-61
2021/09/08 00:30:22;;;;;;;19.75;14.10;;;;;;;;;;5031111;28;20036;-60
2021/09/08 00:32:49;;;;;;;18.25;13.00;;;;;;;;;;5034538;28;20033;-60
2021/09/08 00:35:15;;;;;;;17.48;13.43;;;;;;;;;;5032865;28;20030;-61
2021/09/08 00:37:41;;;;;;;17.35;14.20;;;;;;;;;;5032515;28;20544;-60
2021/09/08 00:40:08;;;;;;;18.13;13.48;;;;;;;;;;5040843;28;20026;-60
2021/09/08 00:42:34;;;;;;;18.85;13.55;;;;;;;;;;5030693;28;20029;-60
2021/09/08 00:45:00;;;;;;;19.73;13.63;;;;;;;;;;5031592;28;20068;-60
2021/09/08 00:47:26;;;;;;;17.00;13.98;;;;;;;;;;5032499;28;20029;-60
2021/09/08 00:49:52;;;;;;;15.63;12.77;;;;;;;;;;5032494;28;20029;-60
2021/09/08 00:52:18;;;;;;;16.95;13.38;;;;;;;;;;5038957;28;20070;-60
2021/09/08 00:54:46;;;;;;;21.77;14.65;;;;;;;;;;5032776;28;20041;-60
2021/09/08 00:57:12;;;;;;;16.23;12.93;;;;;;;;;;5031046;28;20427;-60
2021/09/08 00:59:38;;;;;;;18.17;13.75;;;;;;;;;;5032129;28;20132;-60
2021/09/08 01:02:04;;;;;;;20.20;14.15;;;;;;;;;;5032305;28;20025;-60
2021/09/08 01:04:31;;;;;;;19.60;13.18;;;;;;;;;;5033428;28;20029;-60
2021/09/08 01:06:58;;;;;;;19.15;13.43;;;;;;;;;;5031987;28;20025;-60
2021/09/08 01:09:24;;;;;;;18.65;13.02;;;;;;;;;;5031289;28;20022;-60
2021/09/08 01:11:50;;;;;;;19.55;14.13;;;;;;;;;;5032328;28;20025;-60
2021/09/08 01:14:16;;;;;;;19.75;13.65;;;;;;;;;;5031709;28;20025;-60
2021/09/08 01:16:42;;;;;;;19.63;13.00;;;;;;;;;;5032169;28;20036;-60
2021/09/08 01:19:08;;;;;;;16.77;13.38;;;;;;;;;;5039999;28;20381;-60
2021/09/08 01:21:34;;;;;;;20.20;14.52;;;;;;;;;;5031641;28;20101;-60
2021/09/08 01:24:05;;;;;;;20.42;14.55;;;;;;;;;;5036415;28;20044;-60
2021/09/08 01:26:31;;;;;;;19.38;14.55;;;;;;;;;;5036154;28;20056;-60
2021/09/08 01:28:57;;;;;;;18.23;14.02;;;;;;;;;;5036971;28;20080;-60
2021/09/08 01:31:23;;;;;;;19.40;14.05;;;;;;;;;;5037718;28;20033;-60
2021/09/08 01:33:48;;;;;;;19.98;14.85;;;;;;;;;;5036595;28;20055;-60
2021/09/08 01:36:14;;;;;;;16.10;13.95;;;;;;;;;;5036033;28;20033;-60
2021/09/08 01:38:40;;;;;;;19.85;15.02;;;;;;;;;;5037359;28;20036;-60
2021/09/08 01:41:06;;;;;;;22.60;14.90;;;;;;;;;;5037171;28;20468;-60
2021/09/08 01:43:32;;;;;;;19.05;14.40;;;;;;;;;;5035568;28;20026;-60
2021/09/08 01:45:58;;;;;;;20.77;14.65;;;;;;;;;;5035904;28;20045;-60
2021/09/08 01:48:24;;;;;;;18.25;14.85;;;;;;;;;;5034406;28;20100;-60
2021/09/08 01:50:50;;;;;;;19.83;14.38;;;;;;;;;;5035971;28;20029;-60
2021/09/08 01:53:16;;;;;;;18.60;12.57;;;;;;;;;;5035752;28;20033;-60
2021/09/08 01:55:42;;;;;;;20.50;14.30;;;;;;;;;;5034924;28;20108;-60
2021/09/08 01:58:08;;;;;;;19.15;14.00;;;;;;;;;;5035349;28;20031;-60
2021/09/08 02:00:34;;;;;;;19.77;13.35;;;;;;;;;;5035174;28;20025;-60
2021/09/08 02:03:00;;;;;;;17.52;13.70;;;;;;;;;;5035089;28;20018;-60
2021/09/08 02:05:26;;;;;;;17.95;14.55;;;;;;;;;;5035442;28;20083;-60
2021/09/08 02:07:52;;;;;;;19.15;14.20;;;;;;;;;;5035042;28;20393;-61
2021/09/08 02:10:18;;;;;;;19.25;14.18;;;;;;;;;;5035072;28;20029;-61
2021/09/08 02:12:44;;;;;;;18.98;13.82;;;;;;;;;;5034097;28;20389;-61
2021/09/08 02:15:11;;;;;;;20.30;13.77;;;;;;;;;;5035902;28;20033;-60
2021/09/08 02:17:37;;;;;;;19.38;13.98;;;;;;;;;;5035198;28;20022;-61
2021/09/08 02:20:03;;;;;;;16.15;13.38;;;;;;;;;;5035948;28;20420;-60
2021/09/08 02:22:29;;;;;;;16.70;13.10;;;;;;;;;;5036655;28;20039;-60
2021/09/08 02:24:55;;;;;;;16.90;13.18;;;;;;;;;;5036676;28;20529;-60
2021/09/08 02:27:21;;;;;;;21.60;13.60;;;;;;;;;;5034084;28;20029;-60
2021/09/08 02:29:47;;;;;;;18.15;14.00;;;;;;;;;;5036303;28;20025;-61
2021/09/08 02:32:13;;;;;;;19.33;14.32;;;;;;;;;;5034665;28;20033;-61
2021/09/08 02:34:39;;;;;;;19.30;13.65;;;;;;;;;;5034364;28;20026;-60
2021/09/08 02:37:05;;;;;;;18.98;13.90;;;;;;;;;;5036375;28;20385;-60
2021/09/08 02:39:31;;;;;;;16.63;13.52;;;;;;;;;;5033777;28;20032;-60
2021/09/08 02:41:57;;;;;;;20.63;15.05;;;;;;;;;;5034485;28;20029;-60
2021/09/08 02:44:23;;;;;;;19.58;13.52;;;;;;;;;;5034683;28;20041;-60
2021/09/08 02:46:49;;;;;;;18.48;13.65;;;;;;;;;;5034210;28;20026;-60
2021/09/08 02:49:15;;;;;;;18.38;14.45;;;;;;;;;;5034619;28;20111;-60
2021/09/08 02:51:41;;;;;;;18.55;13.77;;;;;;;;;;5034230;28;20047;-60
2021/09/08 02:54:07;;;;;;;19.60;14.38;;;;;;;;;;5035247;28;20028;-60
2021/09/08 02:56:33;;;;;;;22.23;14.02;;;;;;;;;;5034148;28;20493;-60
2021/09/08 02:58:59;;;;;;;20.58;14.65;;;;;;;;;;5034456;28;20155;-60
2021/09/08 03:01:25;;;;;;;18.52;14.50;;;;;;;;;;5035560;28;20040;-60
2021/09/08 03:03:51;;;;;;;17.63;14.02;;;;;;;;;;5018308;28;20095;-60
2021/09/08 03:06:17;;;;;;;20.80;14.75;;;;;;;;;;5033366;28;20064;-60
2021/09/08 03:08:43;;;;;;;18.08;13.77;;;;;;;;;;5034090;28;20026;-60
2021/09/08 03:11:09;;;;;;;16.25;13.23;;;;;;;;;;5034151;28;20553;-61
2021/09/08 03:13:35;;;;;;;19.35;14.35;;;;;;;;;;5034085;28;20018;-60
2021/09/08 03:16:01;;;;;;;18.67;14.60;;;;;;;;;;5047135;28;20397;-60
2021/09/08 03:18:27;;;;;;;18.30;13.73;;;;;;;;;;5033123;28;20083;-60
2021/09/08 03:20:53;;;;;;;18.88;14.02;;;;;;;;;;5034554;28;20026;-69
2021/09/08 03:23:19;;;;;;;21.23;14.48;;;;;;;;;;5033986;28;20021;-69
2021/09/08 03:25:45;;;;;;;18.35;13.43;;;;;;;;;;5034879;28;20044;-69
2021/09/08 03:28:11;;;;;;;21.23;14.68;;;;;;;;;;5035249;28;20037;-69
2021/09/08 03:30:37;;;;;;;19.13;14.07;;;;;;;;;;5032675;28;20033;-69
2021/09/08 03:33:03;;;;;;;17.88;13.88;;;;;;;;;;5035249;28;20033;-69
2021/09/08 03:35:29;;;;;;;21.27;15.73;;;;;;;;;;5033795;28;20028;-69
2021/09/08 03:37:55;;;;;;;20.73;13.77;;;;;;;;;;5033396;28;20029;-69
2021/09/08 03:40:22;;;;;;;18.35;14.02;;;;;;;;;;5034667;28;20385;-69
2021/09/08 03:42:48;;;;;;;19.75;14.50;;;;;;;;;;5032634;28;20025;-69
2021/09/08 03:45:14;;;;;;;17.58;13.55;;;;;;;;;;5032394;28;20041;-69
2021/09/08 03:47:41;;;;;;;22.35;13.60;;;;;;;;;;5033545;28;20032;-69
2021/09/08 03:50:07;;;;;;;19.50;13.38;;;;;;;;;;5033371;28;20029;-69
2021/09/08 03:52:33;;;;;;;19.90;13.52;;;;;;;;;;5033055;28;20548;-69
2021/09/08 03:54:59;;;;;;;17.65;13.93;;;;;;;;;;5033239;28;20032;-69
2021/09/08 03:57:25;;;;;;;18.98;14.20;;;;;;;;;;5032484;28;20120;-69
2021/09/08 03:59:51;;;;;;;19.80;13.93;;;;;;;;;;5032652;28;20017;-69
2021/09/08 04:02:17;;;;;;;18.10;14.85;;;;;;;;;;5033373;28;20025;-69
2021/09/08 04:04:43;;;;;;;19.95;14.40;;;;;;;;;;5032976;28;20469;-69
2021/09/08 04:07:09;;;;;;;19.60;14.40;;;;;;;;;;5033044;28;20056;-69
2021/09/08 04:09:35;;;;;;;18.33;13.75;;;;;;;;;;5032153;28;20282;-69
2021/09/08 04:12:01;;;;;;;19.98;13.82;;;;;;;;;;5034584;28;20035;-69
2021/09/08 04:14:27;;;;;;;19.17;14.25;;;;;;;;;;5032819;28;20022;-68
2021/09/08 04:16:53;;;;;;;21.20;14.20;;;;;;;;;;5032891;28;20061;-69
2021/09/08 04:19:20;;;;;;;19.67;14.55;;;;;;;;;;5032544;28;20026;-69
2021/09/08 04:21:46;;;;;;;19.55;15.32;;;;;;;;;;5031596;28;20028;-69
2021/09/08 04:24:12;;;;;;;17.00;14.02;;;;;;;;;;5032238;28;20439;-69
2021/09/08 04:26:38;;;;;;;18.63;14.43;;;;;;;;;;5034150;28;20105;-69
2021/09/08 04:29:04;;;;;;;18.85;14.07;;;;;;;;;;5033824;28;20068;-69
2021/09/08 04:31:30;;;;;;;18.20;14.90;;;;;;;;;;5031580;28;20462;-69
2021/09/08 04:33:56;;;;;;;25.45;14.88;;;;;;;;;;5031877;28;20035;-68
2021/09/08 04:36:22;;;;;;;20.60;13.73;;;;;;;;;;5030975;28;20033;-69
2021/09/08 04:38:48;;;;;;;18.73;14.30;;;;;;;;;;5032702;28;20025;-70
2021/09/08 04:41:14;;;;;;;18.88;14.45;;;;;;;;;;5031796;28;20384;-66
2021/09/08 04:43:41;;;;;;;18.10;13.77;;;;;;;;;;5032181;28;20043;-66
2021/09/08 04:46:08;;;;;;;16.90;14.07;;;;;;;;;;5033774;28;20040;-70
2021/09/08 04:48:34;;;;;;;20.23;14.38;;;;;;;;;;5031634;28;20026;-73
2021/09/08 04:51:01;;;;;;;19.45;14.95;;;;;;;;;;5033680;28;20041;-73
2021/09/08 04:53:26;;;;;;;19.70;14.52;;;;;;;;;;5032118;28;20125;-72
2021/09/08 04:55:52;;;;;;;21.02;14.30;;;;;;;;;;5032147;28;20084;-72
2021/09/08 04:58:18;;;;;;;22.23;14.98;;;;;;;;;;5033008;28;20029;-73
2021/09/08 05:00:44;;;;;;;17.90;13.98;;;;;;;;;;5032103;28;20029;-72
2021/09/08 05:03:10;;;;;;;22.02;14.52;;;;;;;;;;5031783;28;20033;-73
2021/09/08 05:05:36;;;;;;;17.73;14.57;;;;;;;;;;5031829;28;20037;-72
2021/09/08 05:08:02;;;;;;;19.92;14.10;;;;;;;;;;5032433;28;20474;-73
2021/09/08 05:10:28;;;;;;;16.98;13.90;;;;;;;;;;5031647;28;20481;-73
2021/09/08 05:12:54;;;;;;;18.58;14.38;;;;;;;;;;5031554;28;20032;-73
2021/09/08 05:15:20;;;;;;;20.52;14.48;;;;;;;;;;5031701;28;20052;-73
2021/09/08 05:17:47;;;;;;;16.50;13.27;;;;;;;;;;5032103;28;20025;-72
2021/09/08 05:20:13;;;;;;;18.20;13.05;;;;;;;;;;5031733;28;20116;-72
2021/09/08 05:22:39;;;;;;;16.55;13.52;;;;;;;;;;5031819;28;20037;-73
2021/09/08 05:25:06;;;;;;;19.45;13.77;;;;;;;;;;5032890;28;20430;-53
2021/09/08 05:27:32;;;;;;;19.27;13.30;;;;;;;;;;5031366;28;20077;-51
2021/09/08 05:29:58;;;;;;;20.42;13.50;;;;;;;;;;5033579;28;20084;-53
2021/09/08 05:32:23;;;;;;;19.38;14.10;;;;;;;;;;5032655;28;20033;-55
2021/09/08 05:34:49;;;;;;;20.73;13.68;;;;;;;;;;5032314;28;20485;-55
2021/09/08 05:37:15;;;;;;;18.35;14.32;;;;;;;;;;5032330;28;20041;-54
2021/09/08 05:39:41;;;;;;;23.35;14.93;;;;;;;;;;5030445;28;20083;-53
2021/09/08 05:42:07;;;;;;;22.77;15.32;;;;;;;;;;5032112;28;20404;-55
2021/09/08 05:44:33;;;;;;;19.90;15.45;;;;;;;;;;5031286;28;20121;-54
2021/09/08 05:46:59;;;;;;;26.08;15.80;;;;;;;;;;5031263;28;20029;-54
2021/09/08 05:49:25;;;;;;;20.02;16.55;;;;;;;;;;5033043;28;20400;-55
2021/09/08 05:51:51;;;;;;;23.15;15.27;;;;;;;;;;5030620;28;20059;-52
2021/09/08 05:54:17;;;;;;;23.90;14.20;;;;;;;;;;5031252;28;20048;-54
2021/09/08 05:56:43;;;;;;;18.58;14.95;;;;;;;;;;5031591;28;20034;-52
2021/09/08 05:59:09;;;;;;;21.70;15.05;;;;;;;;;;5031666;28;20384;-54
2021/09/08 06:01:35;;;;;;;19.23;14.50;;;;;;;;;;5031786;28;20044;-52
2021/09/08 06:04:01;;;;;;;17.23;13.27;;;;;;;;;;5045106;28;20021;-54
2021/09/08 06:06:27;;;;;;;23.90;14.43;;;;;;;;;;5030706;28;20475;-52
2021/09/08 06:08:53;;;;;;;16.88;12.90;;;;;;;;;;5034351;28;20033;-52
2021/09/08 06:11:19;;;;;;;18.67;14.25;;;;;;;;;;5034340;28;20033;-48
2021/09/08 06:13:45;;;;;;;20.45;14.05;;;;;;;;;;5034910;28;20083;-54
2021/09/08 06:16:11;;;;;;;18.35;13.00;;;;;;;;;;5034988;28;20100;-49
2021/09/08 06:18:37;;;;;;;21.42;14.40;;;;;;;;;;5034734;28;20392;-49
2021/09/08 06:21:03;;;;;;;17.58;13.48;;;;;;;;;;5032427;28;20072;-72
2021/09/08 06:23:29;;;;;;;22.52;13.25;;;;;;;;;;5034620;28;20021;-72
2021/09/08 06:25:55;;;;;;;21.73;13.43;;;;;;;;;;5036241;28;20065;-71
2021/09/08 06:28:23;;;;;;;16.98;12.73;;;;;;;;;;5034829;28;20048;-72
2021/09/08 06:30:49;;;;;;;18.95;13.73;;;;;;;;;;5034502;28;20025;-72
2021/09/08 06:33:15;;;;;;;21.60;14.68;;;;;;;;;;5034092;28;20032;-71
2021/09/08 06:35:41;;;;;;;21.77;14.10;;;;;;;;;;5036037;28;20026;-71
2021/09/08 06:38:07;;;;;;;19.90;13.82;;;;;;;;;;5034445;28;20393;-71
2021/09/08 06:40:33;;;;;;;16.38;13.07;;;;;;;;;;5034609;28;20087;-71
2021/09/08 06:43:00;;;;;;;18.23;13.88;;;;;;;;;;5036259;28;20488;-71
2021/09/08 06:45:26;;;;;;;22.15;14.13;;;;;;;;;;5033365;28;20064;-71
2021/09/08 06:47:52;;;;;;;18.50;13.38;;;;;;;;;;5034236;28;20060;-71
2021/09/08 06:50:18;;;;;;;17.98;13.70;;;;;;;;;;5034623;28;20057;-71
2021/09/08 06:52:44;;;;;;;19.65;12.63;;;;;;;;;;5040766;28;20025;-70
2021/09/08 06:55:10;;;;;;;16.13;11.95;;;;;;;;;;5034533;28;20029;-71
2021/09/08 06:57:36;;;;;;;18.90;12.57;;;;;;;;;;5033933;28;20029;-71
2021/09/08 07:00:02;;;;;;;18.30;12.50;;;;;;;;;;5034633;28;20481;-70
2021/09/08 07:02:28;;;;;;;19.38;13.05;;;;;;;;;;5034170;28;20021;-71
2021/09/08 07:04:54;;;;;;;16.52;12.50;;;;;;;;;;5033899;28;20091;-71
2021/09/08 07:07:20;;;;;;;19.90;12.43;;;;;;;;;;5035563;28;20109;-71
2021/09/08 07:09:46;;;;;;;16.42;12.38;;;;;;;;;;5034331;28;20120;-71
2021/09/08 07:12:13;;;;;;;21.90;12.27;;;;;;;;;;5033570;28;20037;-71
2021/09/08 07:14:39;;;;;;;19.90;11.93;;;;;;;;;;5033450;28;20029;-71
2021/09/08 07:17:05;;;;;;;20.50;11.98;;;;;;;;;;5033961;28;20030;-71
2021/09/08 07:19:32;;;;;;;16.65;12.40;;;;;;;;;;5034075;28;20052;-71
2021/09/08 07:21:59;;;;;;;19.48;11.90;;;;;;;;;;5033210;28;20059;-70
2021/09/08 07:24:25;;;;;;;20.38;12.63;;;;;;;;;;5032263;28;20034;-70
2021/09/08 07:26:55;;;;;;;18.42;11.98;;;;;;;;;;5035536;28;20442;-71
2021/09/08 07:29:22;;;;;;;16.40;12.63;;;;;;;;;;5033765;28;20041;-70
2021/09/08 07:31:48;;;;;;;16.83;11.98;;;;;;;;;;5033512;28;20032;-71
2021/09/08 07:34:14;;;;;;;19.25;12.25;;;;;;;;;;5033325;28;20384;-71
2021/09/08 07:36:40;;;;;;;17.95;12.00;;;;;;;;;;5033439;28;20026;-71
2021/09/08 07:39:05;;;;;;;15.43;11.32;;;;;;;;;;5034845;28;20457;-70
2021/09/08 07:41:31;;;;;;;15.13;11.50;;;;;;;;;;5035255;28;20040;-70
2021/09/08 07:43:58;;;;;;;14.93;10.77;;;;;;;;;;5033017;28;20097;-70
2021/09/08 07:46:24;;;;;;;18.17;11.85;;;;;;;;;;5034686;28;20071;-70
2021/09/08 07:48:50;;;;;;;16.52;11.13;;;;;;;;;;5033540;28;20026;-70
2021/09/08 07:51:16;;;;;;;17.45;11.98;;;;;;;;;;5033001;28;20116;-70
2021/09/08 07:53:42;;;;;;;15.77;11.30;;;;;;;;;;5032625;28;20032;-71
2021/09/08 07:56:08;;;;;;;16.40;11.40;;;;;;;;;;5033482;28;20018;-71
2021/09/08 07:58:34;;;;;;;16.35;11.25;;;;;;;;;;5033162;28;20021;-71
2021/09/08 08:01:00;;;;;;;16.65;11.45;;;;;;;;;;5033353;28;20025;-71
2021/09/08 08:03:27;;;;;;;17.70;12.15;;;;;;;;;;5031679;28;20048;-71
2021/09/08 08:05:53;;;;;;;16.35;10.95;;;;;;;;;;5034862;28;20033;-71
2021/09/08 08:08:19;;;;;;;18.27;11.10;;;;;;;;;;5033209;28;20145;-71
2021/09/08 08:10:45;;;;;;;17.45;12.65;;;;;;;;;;5033075;28;20060;-72
2021/09/08 08:13:11;;;;;;;14.80;11.07;;;;;;;;;;5032336;28;20025;-71
2021/09/08 08:15:37;;;;;;;17.88;10.93;;;;;;;;;;5032538;28;20097;-71
2021/09/08 08:18:03;;;;;;;19.05;11.43;;;;;;;;;;5034384;28;20025;-71
2021/09/08 08:20:29;;;;;;;16.02;10.85;;;;;;;;;;5033047;28;20079;-71
2021/09/08 08:22:55;;;;;;;18.40;12.13;;;;;;;;;;5032760;28;20477;-71
2021/09/08 08:25:30;;;;;;;16.80;11.20;;;;;;;;;;5034013;28;20029;-71
2021/09/08 08:27:56;;;;;;;16.92;11.52;;;;;;;;;;5017386;28;20370;-71
2021/09/08 08:30:22;;;;;;;15.20;10.70;;;;;;;;;;5031877;28;20101;-71
2021/09/08 08:32:49;;;;;;;16.58;11.35;;;;;;;;;;5032633;28;20105;-71
2021/09/08 08:35:15;;;;;;;18.38;10.90;;;;;;;;;;5032592;28;20381;-71
2021/09/08 08:37:41;;;;;;;16.38;11.27;;;;;;;;;;5034345;28;20075;-71
2021/09/08 08:40:08;;;;;;;17.40;11.57;;;;;;;;;;5034233;28;20029;-71
2021/09/08 08:42:35;;;;;;;20.10;11.07;;;;;;;;;;5031626;28;20499;-70
2021/09/08 08:45:01;;;;;;;14.00;10.70;;;;;;;;;;5033498;28;20048;-70
2021/09/08 08:47:27;;;;;;;15.63;10.85;;;;;;;;;;5034050;28;20029;-70
2021/09/08 08:49:53;;;;;;;15.70;11.15;;;;;;;;;;5033952;28;20029;-70
2021/09/08 08:52:20;;;;;;;17.50;10.90;;;;;;;;;;5033696;28;20018;-70
2021/09/08 08:54:46;;;;;;;16.15;10.88;;;;;;;;;;5031889;28;20127;-70
2021/09/08 08:57:13;;;;;;;17.40;11.07;;;;;;;;;;5031643;28;20108;-70
2021/09/08 08:59:40;;;;;;;15.98;11.68;;;;;;;;;;5032310;28;20036;-70
2021/09/08 09:02:26;;;;;;;18.93;11.80;;;;;;;;;;5032475;28;20675;-70
2021/09/08 09:04:55;;;;;;;17.33;10.85;;;;;;;;;;5031854;28;20298;-70
2021/09/08 09:07:33;;;;;;;18.92;11.65;;;;;;;;;;5032273;28;20025;-70
2021/09/08 09:10:00;;;;;;;16.05;11.43;;;;;;;;;;5017007;28;20052;-70
2021/09/08 09:12:32;;;;;;;15.77;12.07;;;;;;;;;;5031349;28;20037;-70
2021/09/08 09:14:59;;;;;;;17.05;11.82;;;;;;;;;;5030662;28;20037;-70
2021/09/08 09:17:29;;;;;;;16.10;11.40;;;;;;;;;;5032174;28;20032;-70
2021/09/08 09:19:55;;;;;;;20.58;11.27;;;;;;;;;;5032048;28;20108;-70
2021/09/08 09:22:25;;;;;;;17.75;12.02;;;;;;;;;;5033415;28;20025;-70
2021/09/08 09:24:52;;;;;;;18.27;11.95;;;;;;;;;;5032230;28;20052;-70
2021/09/08 09:27:18;;;;;;;15.95;11.68;;;;;;;;;;5030893;28;20084;-70
2021/09/08 09:29:45;;;;;;;19.55;11.73;;;;;;;;;;5032036;28;20073;-70
2021/09/08 09:32:12;;;;;;;20.10;11.87;;;;;;;;;;5032186;28;20105;-70
2021/09/08 09:34:42;;;;;;;16.92;11.43;;;;;;;;;;5031800;28;20370;-70
2021/09/08 09:37:09;;;;;;;17.40;12.35;;;;;;;;;;5031847;28;20026;-70
2021/09/08 09:39:36;;;;;;;24.52;11.90;;;;;;;;;;5031293;28;20041;-70
2021/09/08 09:42:06;;;;;;;19.92;11.75;;;;;;;;;;5030838;28;20018;-67
2021/09/08 09:44:33;;;;;;;16.83;11.18;;;;;;;;;;5033922;28;20049;-68
2021/09/08 09:47:03;;;;;;;13.98;11.25;;;;;;;;;;5037278;28;20018;-68
2021/09/08 09:49:33;;;;;;;16.33;11.65;;;;;;;;;;5037190;28;20056;-68
2021/09/08 09:51:59;;;;;;;16.25;11.07;;;;;;;;;;5036848;28;20033;-67
2021/09/08 09:54:25;;;;;;;17.63;12.23;;;;;;;;;;5034854;28;20489;-68
2021/09/08 09:56:55;;;;;;;17.20;11.18;;;;;;;;;;5034119;28;20025;-67
2021/09/08 09:59:21;;;;;;;20.33;11.57;;;;;;;;;;5035210;28;20092;-67
2021/09/08 10:01:47;;;;;;;20.67;11.48;;;;;;;;;;5037114;28;20087;-67
2021/09/08 10:04:14;;;;;;;15.15;11.65;;;;;;;;;;5035518;28;20071;-67
2021/09/08 10:06:41;;;;;;;15.95;11.20;;;;;;;;;;5034934;28;20037;-68
2021/09/08 10:09:10;;;;;;;16.07;10.70;;;;;;;;;;5034373;28;20539;-68
2021/09/08 10:11:44;;;;;;;17.67;11.73;;;;;;;;;;5035447;28;20069;-68
2021/09/08 10:14:14;;;;;;;17.52;10.82;;;;;;;;;;5035207;28;20040;-58
2021/09/08 10:16:43;;;;;;;16.27;11.20;;;;;;;;;;5035130;28;20025;-59
2021/09/08 10:19:09;;;;;;;18.95;11.52;;;;;;;;;;5043409;28;20079;-69
2021/09/08 10:21:36;;;;;;;17.23;11.27;;;;;;;;;;5034911;28;20495;-69
2021/09/08 10:24:05;;;;;;;18.73;11.00;;;;;;;;;;5033936;28;20029;-67
2021/09/08 10:26:32;;;;;;;15.82;10.77;;;;;;;;;;5034473;28;20026;-67
2021/09/08 10:29:06;;;;;;;21.40;12.00;;;;;;;;;;5034964;28;20112;-67
2021/09/08 10:31:33;;;;;;;21.50;11.38;;;;;;;;;;5035067;28;20389;-68
2021/09/08 10:34:00;;;;;;;15.88;11.65;;;;;;;;;;5031158;28;20040;-68
2021/09/08 10:36:26;;;;;;;18.08;11.68;;;;;;;;;;5031157;28;20056;-68
2021/09/08 10:39:10;;;;;;;17.05;11.55;;;;;;;;;;5032993;28;20036;-68
2021/09/08 10:41:48;;;;;;;18.90;11.30;;;;;;;;;;5034549;28;20022;-68
2021/09/08 10:44:16;;;;;;;15.27;9.85;;;;;;;;;;5034536;28;20108;-68
2021/09/08 10:46:52;;;;;;;16.48;10.57;;;;;;;;;;5041438;28;20021;-68
2021/09/08 10:49:37;;;;;;;17.73;10.20;;;;;;;;;;5034204;28;20496;-68
2021/09/08 10:52:04;;;;;;;16.55;9.90;;;;;;;;;;5019378;28;20029;-68
2021/09/08 10:54:30;;;;;;;15.40;9.90;;;;;;;;;;5047459;28;20061;-69
2021/09/08 10:56:56;;;;;;;16.23;9.77;;;;;;;;;;5033728;28;20493;-68
2021/09/08 10:59:22;;;;;;;14.90;10.57;;;;;;;;;;5034083;28;20041;-68
2021/09/08 11:01:52;;;;;;;14.93;11.13;;;;;;;;;;5035003;28;20477;-69
2021/09/08 11:04:18;;;;;;;14.65;10.38;;;;;;;;;;5041319;28;20025;-69
2021/09/08 11:06:46;;;;;;;16.10;10.85;;;;;;;;;;5034055;28;20037;-69
2021/09/08 11:09:13;;;;;;;14.80;10.77;;;;;;;;;;5032226;28;20016;-69
2021/09/08 11:11:48;;;;;;;15.13;10.07;;;;;;;;;;5029183;28;20482;-69
2021/09/08 11:14:16;;;;;;;17.75;9.82;;;;;;;;;;5033899;28;20013;-68
2021/09/08 11:16:42;;;;;;;15.23;10.27;;;;;;;;;;5034861;28;20388;-71
2021/09/08 11:19:11;;;;;;;15.80;10.82;;;;;;;;;;5033038;28;20104;-71
2021/09/08 11:21:37;;;;;;;14.70;9.70;;;;;;;;;;5032310;28;20037;-69
2021/09/08 11:24:04;;;;;;;15.65;10.23;;;;;;;;;;5035994;28;20022;-71
2021/09/08 11:26:32;;;;;;;14.88;10.57;;;;;;;;;;5030101;28;20021;-72
2021/09/08 11:29:05;;;;;;;14.75;9.98;;;;;;;;;;5031200;28;20103;-72
2021/09/08 11:31:36;;;;;;;15.25;9.93;;;;;;;;;;5034096;28;20049;-71
2021/09/08 11:34:03;;;;;;;15.38;10.35;;;;;;;;;;5032381;28;20024;-68
2021/09/08 11:36:30;;;;;;;13.32;10.27;;;;;;;;;;5033101;28;20078;-71
2021/09/08 11:38:57;;;;;;;15.85;10.02;;;;;;;;;;5032890;28;20163;-69
2021/09/08 11:41:24;;;;;;;13.98;10.70;;;;;;;;;;5034615;28;20531;-71
2021/09/08 11:43:52;;;;;;;17.83;10.25;;;;;;;;;;5034129;28;20428;-70
2021/09/08 11:46:25;;;;;;;15.52;10.48;;;;;;;;;;5034546;28;20029;-71
2021/09/08 11:48:52;;;;;;;14.70;10.15;;;;;;;;;;5033109;28;20439;-70
2021/09/08 11:51:21;;;;;;;18.70;11.20;;;;;;;;;;5030978;28;20133;-71
2021/09/08 11:53:50;;;;;;;22.15;11.15;;;;;;;;;;5033382;28;20033;-72
2021/09/08 11:56:26;;;;;;;15.05;9.60;;;;;;;;;;5033799;28;20025;-70
2021/09/08 11:58:56;;;;;;;14.38;10.27;;;;;;;;;;5034478;28;20064;-69
2021/09/08 12:01:22;;;;;;;16.58;11.18;;;;;;;;;;5033168;28;20022;-69
2021/09/08 12:03:56;;;;;;;15.40;9.98;;;;;;;;;;5027848;28;20108;-69
2021/09/08 12:06:26;;;;;;;17.65;10.73;;;;;;;;;;5027818;28;20802;-70
2021/09/08 12:09:26;;;;;;;16.00;10.70;;;;;;;;;;5032969;28;20080;-69
2021/09/08 12:12:15;;;;;;;14.57;11.10;;;;;;;;;;5010865;28;20041;-70
2021/09/08 12:14:42;;;;;;;18.65;10.82;;;;;;;;;;5027933;28;20069;-72
2021/09/08 12:17:12;;;;;;;15.80;11.30;;;;;;;;;;5031167;28;20020;-69
2021/09/08 12:19:46;;;;;;;14.93;10.45;;;;;;;;;;5032150;28;20108;-72
2021/09/08 12:22:12;;;;;;;17.45;10.68;;;;;;;;;;5035306;28;20484;-72
2021/09/08 12:24:41;;;;;;;19.08;10.65;;;;;;;;;;5031654;28;20124;-71
2021/09/08 12:27:25;;;;;;;20.17;11.27;;;;;;;;;;5028968;28;20013;-71
2021/09/08 12:29:56;;;;;;;14.65;10.63;;;;;;;;;;5033343;28;20034;-72
2021/09/08 12:32:23;;;;;;;16.63;11.30;;;;;;;;;;5035264;28;20021;-70
2021/09/08 12:34:53;;;;;;;16.95;11.05;;;;;;;;;;5031842;28;20045;-68
2021/09/08 12:37:23;;;;;;;15.30;10.38;;;;;;;;;;5033537;28;20053;-69
2021/09/08 12:39:50;;;;;;;14.30;10.68;;;;;;;;;;5030749;28;20472;-68
2021/09/08 12:42:27;;;;;;;17.65;10.95;;;;;;;;;;5033061;28;20029;-70
2021/09/08 12:45:04;;;;;;;16.98;10.70;;;;;;;;;;5032364;28;20453;-68
2021/09/08 12:47:30;;;;;;;17.83;10.95;;;;;;;;;;5032135;28;20021;-68
2021/09/08 12:49:56;;;;;;;17.27;11.35;;;;;;;;;;5032127;28;20109;-68
2021/09/08 12:52:23;;;;;;;16.42;11.02;;;;;;;;;;5036836;28;20031;-70
2021/09/08 12:54:49;;;;;;;14.73;10.73;;;;;;;;;;5033116;28;20098;-70
2021/09/08 12:57:16;;;;;;;13.63;10.85;;;;;;;;;;5031112;28;20037;-69
2021/09/08 12:59:42;;;;;;;19.53;10.80;;;;;;;;;;5029210;28;20034;-68
2021/09/08 13:02:09;;;;;;;14.73;10.02;;;;;;;;;;5030104;28;20032;-68
2021/09/08 13:04:36;;;;;;;15.77;11.52;;;;;;;;;;5033365;28;20033;-68
2021/09/08 13:07:02;;;;;;;17.65;10.90;;;;;;;;;;5031029;28;20465;-68
2021/09/08 13:09:29;;;;;;;16.35;10.90;;;;;;;;;;5034075;28;20013;-68
2021/09/08 13:11:55;;;;;;;16.33;11.18;;;;;;;;;;5031039;28;20121;-69
2021/09/08 13:14:22;;;;;;;18.58;11.50;;;;;;;;;;5033307;28;20010;-68
2021/09/08 13:16:48;;;;;;;14.80;10.88;;;;;;;;;;5040987;28;20029;-69
2021/09/08 13:19:14;;;;;;;17.95;10.32;;;;;;;;;;5033183;28;20434;-68
2021/09/08 13:21:41;;;;;;;15.18;10.77;;;;;;;;;;5032839;28;20040;-69
2021/09/08 13:24:08;;;;;;;18.17;11.20;;;;;;;;;;5034743;28;20061;-68
2021/09/08 13:26:35;;;;;;;15.85;11.20;;;;;;;;;;5034416;28;20017;-68
2021/09/08 13:29:01;;;;;;;13.98;9.50;;;;;;;;;;5039015;28;20037;-68
2021/09/08 13:31:31;;;;;;;13.95;10.55;;;;;;;;;;5048197;28;20025;-68
2021/09/08 13:33:58;;;;;;;18.42;10.65;;;;;;;;;;5035773;28;20017;-70
2021/09/08 13:36:24;;;;;;;14.95;10.77;;;;;;;;;;5033260;28;20025;-68
2021/09/08 13:38:50;;;;;;;15.88;10.25;;;;;;;;;;5038496;28;20075;-70
2021/09/08 13:41:16;;;;;;;16.02;10.65;;;;;;;;;;5041402;28;20463;-70
2021/09/08 13:43:43;;;;;;;16.00;9.88;;;;;;;;;;5037958;28;20119;-70
2021/09/08 13:46:10;;;;;;;19.33;9.80;;;;;;;;;;5049404;28;20137;-70
2021/09/08 13:48:36;;;;;;;14.07;10.57;;;;;;;;;;5034912;28;20032;-71
2021/09/08 13:51:03;;;;;;;14.55;9.80;;;;;;;;;;5036740;28;20079;-70
2021/09/08 13:53:30;;;;;;;20.05;11.35;;;;;;;;;;5037041;28;20029;-70
2021/09/08 13:55:57;;;;;;;17.23;10.88;;;;;;;;;;5036477;28;20400;-68
2021/09/08 13:58:23;;;;;;;14.57;10.68;;;;;;;;;;5036942;28;20115;-70
2021/09/08 14:00:49;;;;;;;18.08;11.48;;;;;;;;;;5050564;28;20506;-70
2021/09/08 14:03:15;;;;;;;17.20;10.90;;;;;;;;;;5034812;28;20473;-70
2021/09/08 14:05:41;;;;;;;15.75;10.35;;;;;;;;;;5036480;28;20056;-70
2021/09/08 14:08:12;;;;;;;16.85;11.02;;;;;;;;;;5036300;28;20048;-70
2021/09/08 14:10:38;;;;;;;17.50;11.25;;;;;;;;;;5036890;28;20044;-70
2021/09/08 14:13:04;;;;;;;20.73;11.57;;;;;;;;;;5036957;28;20048;-70
2021/09/08 14:15:30;;;;;;;17.92;11.90;;;;;;;;;;5034313;28;20087;-70
2021/09/08 14:17:56;;;;;;;21.10;10.95;;;;;;;;;;5035321;28;20104;-70